Iron Ridge, Wisconsin
Current Conditions -  °F | °C
As of 9:30 AM on Friday 24 Oct 2014 (Local Time) from KUNU Reporting Station
Haze Haze  
Wind Chill: 45°   Ceiling: 300
Heat Index: 47°   Visibility: 2mi
Dew Point: 47°   Wind: 6mph
Humidity: 99%   Direction: 200°SSW
Pressure: 30.06"   Gusts: NA
Location:  43.4°N, 88.53°W
Report Text: KUNU 241430Z AUTO 20005KT 2SM BR OVC003 09/08 A3006 RMK AO2 T00850083
Loading
Personal Weather Stations






























Interactive Weather Map
Tropical Storm Tracking
New forecast layout! Learn more

10-Day Weather Forecast

Advertisements
Track Severe Weather on mobile